Time;durP1;ratioP1;P1;durP2;ratioP2;P2;SDS_P1;SDS_P2;PMS_P1;PMS_P2;Temp;Humidity;BMP_temperature;BMP_pressure;BME280_temperature;BME280_humidity;BME280_pressure;Samples;Min_cycle;Max_cycle;Signal;HPM_P1;HPM_P2
2019/07/08 00:00:01;;;;;;;10.1;8.85;;;;;;;15.23;100;95132.89;;;;
2019/07/08 00:01:04;;;;;;;11.05;9.85;;;;;;;15.08;100;95130.52;;;;
2019/07/08 00:02:05;;;;;;;11.05;9.85;;;;;;;15.08;100;95130.52;;;;
2019/07/08 00:03:06;;;;;;;11.05;9.85;;;;;;;15.08;100;95130.52;;;;
2019/07/08 00:04:07;;;;;;;11.05;9.85;;;;;;;15.08;100;95130.52;;;;
2019/07/08 00:05:09;;;;;;;11.05;9.85;;;;;;;15.08;100;95130.52;;;;
2019/07/08 00:06:13;;;;;;;11.05;9.85;;;;;;;15.08;100;95130.52;;;;
2019/07/08 00:07:14;;;;;;;11.05;9.85;;;;;;;15.08;100;95130.52;;;;
2019/07/08 00:08:15;;;;;;;11.05;9.85;;;;;;;15.08;100;95130.52;;;;
2019/07/08 00:09:17;;;;;;;11.05;9.85;;;;;;;15.08;100;95130.52;;;;
2019/07/08 00:10:18;;;;;;;11.05;9.85;;;;;;;15.08;100;95130.52;;;;
2019/07/08 00:11:19;;;;;;;13.4;10.65;;;;;;;14.97;100;95117.56;;;;
2019/07/08 00:12:20;;;;;;;13.4;10.65;;;;;;;14.97;100;95117.56;;;;
2019/07/08 00:13:21;;;;;;;13.4;10.65;;;;;;;14.97;100;95117.56;;;;
2019/07/08 00:14:23;;;;;;;13.4;10.65;;;;;;;14.97;100;95117.56;;;;
2019/07/08 00:15:24;;;;;;;13.4;10.65;;;;;;;14.97;100;95117.56;;;;
2019/07/08 00:16:25;;;;;;;13.4;10.65;;;;;;;14.97;100;95117.56;;;;
2019/07/08 00:17:26;;;;;;;13.4;10.65;;;;;;;14.97;100;95117.56;;;;
2019/07/08 00:18:27;;;;;;;13.4;10.65;;;;;;;14.97;100;95117.56;;;;
2019/07/08 00:19:28;;;;;;;13.4;10.65;;;;;;;14.97;100;95117.56;;;;
2019/07/08 00:20:29;;;;;;;13.4;10.65;;;;;;;14.97;100;95117.56;;;;
2019/07/08 00:21:30;;;;;;;14.2;12.5;;;;;;;14.84;100;95145.64;;;;
2019/07/08 00:22:31;;;;;;;14.2;12.5;;;;;;;14.84;100;95145.64;;;;
2019/07/08 00:23:32;;;;;;;14.2;12.5;;;;;;;14.84;100;95145.64;;;;
2019/07/08 00:24:33;;;;;;;14.2;12.5;;;;;;;14.84;100;95145.64;;;;
2019/07/08 00:25:34;;;;;;;14.2;12.5;;;;;;;14.84;100;95145.64;;;;
2019/07/08 00:26:36;;;;;;;14.2;12.5;;;;;;;14.84;100;95145.64;;;;
2019/07/08 00:27:37;;;;;;;14.2;12.5;;;;;;;14.84;100;95145.64;;;;
2019/07/08 00:28:38;;;;;;;14.2;12.5;;;;;;;14.84;100;95145.64;;;;
2019/07/08 00:29:39;;;;;;;14.2;12.5;;;;;;;14.84;100;95145.64;;;;
2019/07/08 00:30:40;;;;;;;14.2;12.5;;;;;;;14.84;100;95145.64;;;;
2019/07/08 00:31:41;;;;;;;14.2;12.5;;;;;;;14.84;100;95145.64;;;;
2019/07/08 00:32:42;;;;;;;15.15;13.65;;;;;;;14.84;100;95136.69;;;;
2019/07/08 00:33:43;;;;;;;15.15;13.65;;;;;;;14.84;100;95136.69;;;;
2019/07/08 00:34:44;;;;;;;15.15;13.65;;;;;;;14.84;100;95136.69;;;;
2019/07/08 00:35:45;;;;;;;15.15;13.65;;;;;;;14.84;100;95136.69;;;;
2019/07/08 00:36:46;;;;;;;15.15;13.65;;;;;;;14.84;100;95136.69;;;;
2019/07/08 00:37:47;;;;;;;15.15;13.65;;;;;;;14.84;100;95136.69;;;;
2019/07/08 00:38:48;;;;;;;15.15;13.65;;;;;;;14.84;100;95136.69;;;;
2019/07/08 00:39:49;;;;;;;15.15;13.65;;;;;;;14.84;100;95136.69;;;;
2019/07/08 00:40:51;;;;;;;15.15;13.65;;;;;;;14.84;100;95136.69;;;;
2019/07/08 00:41:52;;;;;;;15.15;13.65;;;;;;;14.84;100;95136.69;;;;
2019/07/08 00:42:53;;;;;;;16.1;14.4;;;;;;;14.7;100;95123.17;;;;
2019/07/08 00:43:54;;;;;;;16.1;14.4;;;;;;;14.7;100;95123.17;;;;
2019/07/08 00:44:55;;;;;;;16.1;14.4;;;;;;;14.7;100;95123.17;;;;
2019/07/08 00:45:56;;;;;;;16.1;14.4;;;;;;;14.7;100;95123.17;;;;
2019/07/08 00:46:57;;;;;;;16.1;14.4;;;;;;;14.7;100;95123.17;;;;
2019/07/08 00:47:58;;;;;;;16.1;14.4;;;;;;;14.7;100;95123.17;;;;
2019/07/08 00:48:59;;;;;;;16.1;14.4;;;;;;;14.7;100;95123.17;;;;
2019/07/08 00:50:00;;;;;;;16.1;14.4;;;;;;;14.7;100;95123.17;;;;
2019/07/08 00:51:02;;;;;;;16.1;14.4;;;;;;;14.7;100;95123.17;;;;
2019/07/08 00:52:03;;;;;;;16.1;14.4;;;;;;;14.7;100;95123.17;;;;
2019/07/08 00:53:04;;;;;;;16.1;14.4;;;;;;;14.7;100;95123.17;;;;
2019/07/08 00:54:05;;;;;;;17.15;15.35;;;;;;;14.59;100;95128.69;;;;
2019/07/08 00:55:06;;;;;;;17.15;15.35;;;;;;;14.59;100;95128.69;;;;
2019/07/08 00:56:07;;;;;;;17.15;15.35;;;;;;;14.59;100;95128.69;;;;
2019/07/08 00:57:09;;;;;;;17.15;15.35;;;;;;;14.59;100;95128.69;;;;
2019/07/08 00:58:10;;;;;;;17.15;15.35;;;;;;;14.59;100;95128.69;;;;
2019/07/08 00:59:11;;;;;;;17.15;15.35;;;;;;;14.59;100;95128.69;;;;
2019/07/08 01:00:12;;;;;;;17.15;15.35;;;;;;;14.59;100;95128.69;;;;
2019/07/08 01:01:15;;;;;;;17.15;15.35;;;;;;;14.59;100;95128.69;;;;
2019/07/08 01:02:16;;;;;;;17.15;15.35;;;;;;;14.59;100;95128.69;;;;
2019/07/08 01:03:17;;;;;;;17.15;15.35;;;;;;;14.59;100;95128.69;;;;
2019/07/08 01:04:18;;;;;;;17.25;15.5;;;;;;;14.45;100;95122.1;;;;
2019/07/08 01:05:19;;;;;;;17.25;15.5;;;;;;;14.45;100;95122.1;;;;
2019/07/08 01:06:21;;;;;;;17.25;15.5;;;;;;;14.45;100;95122.1;;;;
2019/07/08 01:07:22;;;;;;;17.25;15.5;;;;;;;14.45;100;95122.1;;;;
2019/07/08 01:08:23;;;;;;;17.25;15.5;;;;;;;14.45;100;95122.1;;;;
2019/07/08 01:09:24;;;;;;;17.25;15.5;;;;;;;14.45;100;95122.1;;;;
2019/07/08 01:10:26;;;;;;;17.25;15.5;;;;;;;14.45;100;95122.1;;;;
2019/07/08 01:11:37;;;;;;;17.25;15.5;;;;;;;14.45;100;95122.1;;;;
2019/07/08 01:12:38;;;;;;;17.25;15.5;;;;;;;14.45;100;95122.1;;;;
2019/07/08 01:13:40;;;;;;;17.25;15.5;;;;;;;14.45;100;95122.1;;;;
2019/07/08 01:14:41;;;;;;;18.55;16.6;;;;;;;14.43;100;95106.72;;;;
2019/07/08 01:15:42;;;;;;;18.55;16.6;;;;;;;14.43;100;95106.72;;;;
2019/07/08 01:16:44;;;;;;;18.55;16.6;;;;;;;14.43;100;95106.72;;;;
2019/07/08 01:17:45;;;;;;;18.55;16.6;;;;;;;14.43;100;95106.72;;;;
2019/07/08 01:18:46;;;;;;;18.55;16.6;;;;;;;14.43;100;95106.72;;;;
2019/07/08 01:19:47;;;;;;;18.55;16.6;;;;;;;14.43;100;95106.72;;;;
2019/07/08 01:20:49;;;;;;;18.55;16.6;;;;;;;14.43;100;95106.72;;;;
2019/07/08 01:21:50;;;;;;;18.55;16.6;;;;;;;14.43;100;95106.72;;;;
2019/07/08 01:22:51;;;;;;;18.55;16.6;;;;;;;14.43;100;95106.72;;;;
2019/07/08 01:23:52;;;;;;;18.55;16.6;;;;;;;14.43;100;95106.72;;;;
2019/07/08 01:24:54;;;;;;;18.55;16.6;;;;;;;14.43;100;95106.72;;;;
2019/07/08 01:25:55;;;;;;;18.95;16.95;;;;;;;14.3;100;95122;;;;
2019/07/08 01:26:56;;;;;;;18.95;16.95;;;;;;;14.3;100;95122;;;;
2019/07/08 01:27:57;;;;;;;18.95;16.95;;;;;;;14.3;100;95122;;;;
2019/07/08 01:28:58;;;;;;;18.95;16.95;;;;;;;14.3;100;95122;;;;
2019/07/08 01:30:00;;;;;;;18.95;16.95;;;;;;;14.3;100;95122;;;;
2019/07/08 01:31:01;;;;;;;18.95;16.95;;;;;;;14.3;100;95122;;;;
2019/07/08 01:32:02;;;;;;;18.95;16.95;;;;;;;14.3;100;95122;;;;
2019/07/08 01:33:03;;;;;;;18.95;16.95;;;;;;;14.3;100;95122;;;;
2019/07/08 01:34:05;;;;;;;18.95;16.95;;;;;;;14.3;100;95122;;;;
2019/07/08 01:35:06;;;;;;;18.95;16.95;;;;;;;14.3;100;95122;;;;
2019/07/08 01:36:08;;;;;;;19.7;17.35;;;;;;;14.22;100;95109.85;;;;
2019/07/08 01:37:09;;;;;;;19.7;17.35;;;;;;;14.22;100;95109.85;;;;
2019/07/08 01:38:10;;;;;;;19.7;17.35;;;;;;;14.22;100;95109.85;;;;
2019/07/08 01:39:11;;;;;;;19.7;17.35;;;;;;;14.22;100;95109.85;;;;
2019/07/08 01:40:12;;;;;;;19.7;17.35;;;;;;;14.22;100;95109.85;;;;
2019/07/08 01:41:21;;;;;;;19.7;17.35;;;;;;;14.22;100;95109.85;;;;
2019/07/08 01:42:22;;;;;;;19.7;17.35;;;;;;;14.22;100;95109.85;;;;
2019/07/08 01:43:23;;;;;;;19.7;17.35;;;;;;;14.22;100;95109.85;;;;
2019/07/08 01:44:24;;;;;;;19.7;17.35;;;;;;;14.22;100;95109.85;;;;
2019/07/08 01:45:25;;;;;;;19.7;17.35;;;;;;;14.22;100;95109.85;;;;
2019/07/08 01:46:27;;;;;;;18.7;16.7;;;;;;;14.13;100;95120.92;;;;
2019/07/08 01:47:28;;;;;;;18.7;16.7;;;;;;;14.13;100;95120.92;;;;
2019/07/08 01:48:29;;;;;;;18.7;16.7;;;;;;;14.13;100;95120.92;;;;
2019/07/08 01:49:30;;;;;;;18.7;16.7;;;;;;;14.13;100;95120.92;;;;
2019/07/08 01:50:31;;;;;;;18.7;16.7;;;;;;;14.13;100;95120.92;;;;
2019/07/08 01:51:33;;;;;;;18.7;16.7;;;;;;;14.13;100;95120.92;;;;
2019/07/08 01:52:36;;;;;;;18.7;16.7;;;;;;;14.13;100;95120.92;;;;
2019/07/08 01:53:37;;;;;;;18.7;16.7;;;;;;;14.13;100;95120.92;;;;
2019/07/08 01:54:38;;;;;;;18.7;16.7;;;;;;;14.13;100;95120.92;;;;
2019/07/08 01:55:40;;;;;;;18.7;16.7;;;;;;;14.13;100;95120.92;;;;
2019/07/08 01:56:41;;;;;;;15.85;14.15;;;;;;;14.13;100;95123.22;;;;
2019/07/08 01:57:42;;;;;;;15.85;14.15;;;;;;;14.13;100;95123.22;;;;
2019/07/08 01:58:45;;;;;;;15.85;14.15;;;;;;;14.13;100;95123.22;;;;
2019/07/08 01:59:47;;;;;;;15.85;14.15;;;;;;;14.13;100;95123.22;;;;
2019/07/08 02:00:49;;;;;;;15.85;14.15;;;;;;;14.13;100;95123.22;;;;
2019/07/08 02:01:50;;;;;;;15.85;14.15;;;;;;;14.13;100;95123.22;;;;
2019/07/08 02:02:51;;;;;;;15.85;14.15;;;;;;;14.13;100;95123.22;;;;
2019/07/08 02:03:52;;;;;;;15.85;14.15;;;;;;;14.13;100;95123.22;;;;
2019/07/08 02:04:54;;;;;;;15.85;14.15;;;;;;;14.13;100;95123.22;;;;
2019/07/08 02:05:55;;;;;;;15.85;14.15;;;;;;;14.13;100;95123.22;;;;
2019/07/08 02:06:56;;;;;;;15.85;14.15;;;;;;;14.13;100;95123.22;;;;
2019/07/08 02:07:57;;;;;;;15.95;14.25;;;;;;;14.03;100;95141.61;;;;
2019/07/08 02:08:59;;;;;;;15.95;14.25;;;;;;;14.03;100;95141.61;;;;
2019/07/08 02:10:00;;;;;;;15.95;14.25;;;;;;;14.03;100;95141.61;;;;
2019/07/08 02:11:01;;;;;;;15.95;14.25;;;;;;;14.03;100;95141.61;;;;
2019/07/08 02:12:03;;;;;;;15.95;14.25;;;;;;;14.03;100;95141.61;;;;
2019/07/08 02:13:04;;;;;;;15.95;14.25;;;;;;;14.03;100;95141.61;;;;
2019/07/08 02:14:05;;;;;;;15.95;14.25;;;;;;;14.03;100;95141.61;;;;
2019/07/08 02:15:06;;;;;;;15.95;14.25;;;;;;;14.03;100;95141.61;;;;
2019/07/08 02:16:08;;;;;;;15.95;14.25;;;;;;;14.03;100;95141.61;;;;
2019/07/08 02:17:09;;;;;;;15.95;14.25;;;;;;;14.03;100;95141.61;;;;
2019/07/08 02:18:10;;;;;;;16.65;14.95;;;;;;;14.02;100;95126.95;;;;
2019/07/08 02:19:12;;;;;;;16.65;14.95;;;;;;;14.02;100;95126.95;;;;
2019/07/08 02:20:13;;;;;;;16.65;14.95;;;;;;;14.02;100;95126.95;;;;
2019/07/08 02:21:14;;;;;;;16.65;14.95;;;;;;;14.02;100;95126.95;;;;
2019/07/08 02:22:15;;;;;;;16.65;14.95;;;;;;;14.02;100;95126.95;;;;
2019/07/08 02:23:16;;;;;;;16.65;14.95;;;;;;;14.02;100;95126.95;;;;
2019/07/08 02:24:17;;;;;;;16.65;14.95;;;;;;;14.02;100;95126.95;;;;
2019/07/08 02:25:19;;;;;;;16.65;14.95;;;;;;;14.02;100;95126.95;;;;
2019/07/08 02:26:20;;;;;;;16.65;14.95;;;;;;;14.02;100;95126.95;;;;
2019/07/08 02:27:21;;;;;;;16.65;14.95;;;;;;;14.02;100;95126.95;;;;
2019/07/08 02:28:22;;;;;;;16.65;14.95;;;;;;;14.02;100;95126.95;;;;
2019/07/08 02:29:23;;;;;;;16.05;14.3;;;;;;;13.98;100;95137.09;;;;
2019/07/08 02:30:24;;;;;;;16.05;14.3;;;;;;;13.98;100;95137.09;;;;
2019/07/08 02:31:26;;;;;;;16.05;14.3;;;;;;;13.98;100;95137.09;;;;
2019/07/08 02:32:27;;;;;;;16.05;14.3;;;;;;;13.98;100;95137.09;;;;
2019/07/08 02:33:28;;;;;;;16.05;14.3;;;;;;;13.98;100;95137.09;;;;
2019/07/08 02:34:29;;;;;;;16.05;14.3;;;;;;;13.98;100;95137.09;;;;
2019/07/08 02:35:30;;;;;;;16.05;14.3;;;;;;;13.98;100;95137.09;;;;
2019/07/08 02:36:31;;;;;;;16.05;14.3;;;;;;;13.98;100;95137.09;;;;
2019/07/08 02:37:33;;;;;;;16.05;14.3;;;;;;;13.98;100;95137.09;;;;
2019/07/08 02:38:34;;;;;;;16.05;14.3;;;;;;;13.98;100;95137.09;;;;
2019/07/08 02:39:35;;;;;;;16.7;14.8;;;;;;;13.99;100;95142.3;;;;
2019/07/08 02:40:36;;;;;;;16.7;14.8;;;;;;;13.99;100;95142.3;;;;
2019/07/08 02:41:37;;;;;;;16.7;14.8;;;;;;;13.99;100;95142.3;;;;
2019/07/08 02:42:39;;;;;;;16.7;14.8;;;;;;;13.99;100;95142.3;;;;
2019/07/08 02:43:40;;;;;;;16.7;14.8;;;;;;;13.99;100;95142.3;;;;
2019/07/08 02:44:41;;;;;;;16.7;14.8;;;;;;;13.99;100;95142.3;;;;
2019/07/08 02:45:42;;;;;;;16.7;14.8;;;;;;;13.99;100;95142.3;;;;
2019/07/08 02:46:43;;;;;;;16.7;14.8;;;;;;;13.99;100;95142.3;;;;
2019/07/08 02:47:44;;;;;;;16.7;14.8;;;;;;;13.99;100;95142.3;;;;
2019/07/08 02:48:45;;;;;;;16.7;14.8;;;;;;;13.99;100;95142.3;;;;
2019/07/08 02:49:46;;;;;;;15.25;13.65;;;;;;;13.97;100;95156.66;;;;
2019/07/08 02:50:48;;;;;;;15.25;13.65;;;;;;;13.97;100;95156.66;;;;
2019/07/08 02:51:49;;;;;;;15.25;13.65;;;;;;;13.97;100;95156.66;;;;
2019/07/08 02:52:50;;;;;;;15.25;13.65;;;;;;;13.97;100;95156.66;;;;
2019/07/08 02:53:51;;;;;;;15.25;13.65;;;;;;;13.97;100;95156.66;;;;
2019/07/08 02:54:52;;;;;;;15.25;13.65;;;;;;;13.97;100;95156.66;;;;
2019/07/08 02:55:53;;;;;;;15.25;13.65;;;;;;;13.97;100;95156.66;;;;
2019/07/08 02:56:54;;;;;;;15.25;13.65;;;;;;;13.97;100;95156.66;;;;
2019/07/08 02:57:55;;;;;;;15.25;13.65;;;;;;;13.97;100;95156.66;;;;
2019/07/08 02:58:56;;;;;;;15.25;13.65;;;;;;;13.97;100;95156.66;;;;
2019/07/08 02:59:57;;;;;;;15.25;13.65;;;;;;;13.97;100;95156.66;;;;
2019/07/08 03:00:58;;;;;;;15.45;13.85;;;;;;;14.01;100;95171.33;;;;
2019/07/08 03:01:59;;;;;;;15.45;13.85;;;;;;;14.01;100;95171.33;;;;
2019/07/08 03:03:00;;;;;;;15.45;13.85;;;;;;;14.01;100;95171.33;;;;
2019/07/08 03:04:02;;;;;;;15.45;13.85;;;;;;;14.01;100;95171.33;;;;
2019/07/08 03:05:03;;;;;;;15.45;13.85;;;;;;;14.01;100;95171.33;;;;
2019/07/08 03:06:04;;;;;;;15.45;13.85;;;;;;;14.01;100;95171.33;;;;
2019/07/08 03:07:06;;;;;;;15.45;13.85;;;;;;;14.01;100;95171.33;;;;
2019/07/08 03:08:07;;;;;;;15.45;13.85;;;;;;;14.01;100;95171.33;;;;
2019/07/08 03:09:09;;;;;;;15.45;13.85;;;;;;;14.01;100;95171.33;;;;
2019/07/08 03:10:10;;;;;;;15.45;13.85;;;;;;;14.01;100;95171.33;;;;
2019/07/08 03:11:11;;;;;;;16.4;14.65;;;;;;;13.95;100;95163.83;;;;
2019/07/08 03:12:12;;;;;;;16.4;14.65;;;;;;;13.95;100;95163.83;;;;
2019/07/08 03:13:13;;;;;;;16.4;14.65;;;;;;;13.95;100;95163.83;;;;
2019/07/08 03:14:14;;;;;;;16.4;14.65;;;;;;;13.95;100;95163.83;;;;
2019/07/08 03:15:15;;;;;;;16.4;14.65;;;;;;;13.95;100;95163.83;;;;
2019/07/08 03:16:18;;;;;;;16.4;14.65;;;;;;;13.95;100;95163.83;;;;
2019/07/08 03:17:19;;;;;;;16.4;14.65;;;;;;;13.95;100;95163.83;;;;
2019/07/08 03:18:20;;;;;;;16.4;14.65;;;;;;;13.95;100;95163.83;;;;
2019/07/08 03:19:21;;;;;;;16.4;14.65;;;;;;;13.95;100;95163.83;;;;
2019/07/08 03:20:22;;;;;;;16.4;14.65;;;;;;;13.95;100;95163.83;;;;
2019/07/08 03:21:23;;;;;;;16.4;14.65;;;;;;;13.95;100;95163.83;;;;
2019/07/08 03:22:24;;;;;;;16.4;14.65;;;;;;;13.95;100;95163.83;;;;
2019/07/08 03:23:25;;;;;;;16.4;14.65;;;;;;;13.95;100;95163.83;;;;
2019/07/08 03:24:26;;;;;;;16.4;14.65;;;;;;;13.95;100;95163.83;;;;
2019/07/08 03:25:28;;;;;;;16.4;14.65;;;;;;;13.95;100;95163.83;;;;
2019/07/08 03:26:29;;;;;;;16.4;14.65;;;;;;;13.95;100;95163.83;;;;
2019/07/08 03:27:30;;;;;;;16.4;14.65;;;;;;;13.95;100;95163.83;;;;
2019/07/08 03:28:31;;;;;;;16.4;14.65;;;;;;;13.95;100;95163.83;;;;
2019/07/08 03:29:32;;;;;;;16.4;14.65;;;;;;;13.95;100;95163.83;;;;
2019/07/08 03:30:33;;;;;;;16.4;14.65;;;;;;;13.95;100;95163.83;;;;
2019/07/08 03:31:34;;;;;;;16.4;14.65;;;;;;;13.95;100;95163.83;;;;
2019/07/08 03:32:35;;;;;;;16.2;14.45;;;;;;;13.89;100;95174.77;;;;
2019/07/08 03:33:36;;;;;;;16.2;14.45;;;;;;;13.89;100;95174.77;;;;
2019/07/08 03:34:38;;;;;;;16.2;14.45;;;;;;;13.89;100;95174.77;;;;
2019/07/08 03:35:39;;;;;;;16.2;14.45;;;;;;;13.89;100;95174.77;;;;
2019/07/08 03:36:40;;;;;;;16.2;14.45;;;;;;;13.89;100;95174.77;;;;
2019/07/08 03:37:41;;;;;;;16.2;14.45;;;;;;;13.89;100;95174.77;;;;
2019/07/08 03:38:42;;;;;;;16.2;14.45;;;;;;;13.89;100;95174.77;;;;
2019/07/08 03:39:43;;;;;;;16.2;14.45;;;;;;;13.89;100;95174.77;;;;
2019/07/08 03:40:44;;;;;;;16.2;14.45;;;;;;;13.89;100;95174.77;;;;
2019/07/08 03:41:45;;;;;;;16.2;14.45;;;;;;;13.89;100;95174.77;;;;
2019/07/08 03:42:46;;;;;;;16.2;14.45;;;;;;;13.89;100;95174.77;;;;
2019/07/08 03:43:47;;;;;;;17.55;15.7;;;;;;;13.9;100;95189.17;;;;
2019/07/08 03:44:48;;;;;;;17.55;15.7;;;;;;;13.9;100;95189.17;;;;
2019/07/08 03:45:49;;;;;;;17.55;15.7;;;;;;;13.9;100;95189.17;;;;
2019/07/08 03:46:51;;;;;;;17.55;15.7;;;;;;;13.9;100;95189.17;;;;
2019/07/08 03:47:52;;;;;;;17.55;15.7;;;;;;;13.9;100;95189.17;;;;
2019/07/08 03:48:53;;;;;;;17.55;15.7;;;;;;;13.9;100;95189.17;;;;
2019/07/08 03:49:54;;;;;;;17.55;15.7;;;;;;;13.9;100;95189.17;;;;
2019/07/08 03:50:55;;;;;;;17.55;15.7;;;;;;;13.9;100;95189.17;;;;
2019/07/08 03:51:56;;;;;;;17.55;15.7;;;;;;;13.9;100;95189.17;;;;
2019/07/08 03:52:57;;;;;;;17.55;15.7;;;;;;;13.9;100;95189.17;;;;
2019/07/08 03:53:58;;;;;;;17.35;15.55;;;;;;;13.85;100;95163.73;;;;
2019/07/08 03:54:59;;;;;;;17.35;15.55;;;;;;;13.85;100;95163.73;;;;
2019/07/08 03:56:01;;;;;;;17.35;15.55;;;;;;;13.85;100;95163.73;;;;
2019/07/08 03:57:02;;;;;;;17.35;15.55;;;;;;;13.85;100;95163.73;;;;
2019/07/08 03:58:03;;;;;;;17.35;15.55;;;;;;;13.85;100;95163.73;;;;
2019/07/08 03:59:04;;;;;;;17.35;15.55;;;;;;;13.85;100;95163.73;;;;
2019/07/08 04:00:05;;;;;;;17.35;15.55;;;;;;;13.85;100;95163.73;;;;
2019/07/08 04:01:07;;;;;;;17.35;15.55;;;;;;;13.85;100;95163.73;;;;
2019/07/08 04:02:08;;;;;;;17.35;15.55;;;;;;;13.85;100;95163.73;;;;
2019/07/08 04:03:09;;;;;;;17.35;15.55;;;;;;;13.85;100;95163.73;;;;
2019/07/08 04:04:10;;;;;;;18.7;16.7;;;;;;;13.86;100;95186.68;;;;
2019/07/08 04:05:12;;;;;;;18.7;16.7;;;;;;;13.86;100;95186.68;;;;
2019/07/08 04:06:13;;;;;;;18.7;16.7;;;;;;;13.86;100;95186.68;;;;
2019/07/08 04:07:14;;;;;;;18.7;16.7;;;;;;;13.86;100;95186.68;;;;
2019/07/08 04:08:15;;;;;;;18.7;16.7;;;;;;;13.86;100;95186.68;;;;
2019/07/08 04:09:16;;;;;;;18.7;16.7;;;;;;;13.86;100;95186.68;;;;
2019/07/08 04:10:17;;;;;;;18.7;16.7;;;;;;;13.86;100;95186.68;;;;
2019/07/08 04:11:19;;;;;;;18.7;16.7;;;;;;;13.86;100;95186.68;;;;
2019/07/08 04:12:20;;;;;;;18.7;16.7;;;;;;;13.86;100;95186.68;;;;
2019/07/08 04:13:21;;;;;;;18.7;16.7;;;;;;;13.86;100;95186.68;;;;
2019/07/08 04:14:22;;;;;;;18.7;16.7;;;;;;;13.86;100;95186.68;;;;
2019/07/08 04:15:24;;;;;;;17.8;15.65;;;;;;;13.83;100;95190.34;;;;
2019/07/08 04:16:25;;;;;;;17.8;15.65;;;;;;;13.83;100;95190.34;;;;
2019/07/08 04:17:26;;;;;;;17.8;15.65;;;;;;;13.83;100;95190.34;;;;
2019/07/08 04:18:27;;;;;;;17.8;15.65;;;;;;;13.83;100;95190.34;;;;
2019/07/08 04:19:28;;;;;;;17.8;15.65;;;;;;;13.83;100;95190.34;;;;
2019/07/08 04:20:29;;;;;;;17.8;15.65;;;;;;;13.83;100;95190.34;;;;
2019/07/08 04:21:30;;;;;;;17.8;15.65;;;;;;;13.83;100;95190.34;;;;
2019/07/08 04:22:31;;;;;;;17.8;15.65;;;;;;;13.83;100;95190.34;;;;
2019/07/08 04:23:33;;;;;;;17.8;15.65;;;;;;;13.83;100;95190.34;;;;
2019/07/08 04:24:34;;;;;;;17.8;15.65;;;;;;;13.83;100;95190.34;;;;
2019/07/08 04:25:35;;;;;;;15.45;13.95;;;;;;;13.85;100;95190.08;;;;
2019/07/08 04:26:36;;;;;;;15.45;13.95;;;;;;;13.85;100;95190.08;;;;
2019/07/08 04:27:37;;;;;;;15.45;13.95;;;;;;;13.85;100;95190.08;;;;
2019/07/08 04:28:38;;;;;;;15.45;13.95;;;;;;;13.85;100;95190.08;;;;
2019/07/08 04:29:39;;;;;;;15.45;13.95;;;;;;;13.85;100;95190.08;;;;
2019/07/08 04:30:40;;;;;;;15.45;13.95;;;;;;;13.85;100;95190.08;;;;
2019/07/08 04:31:41;;;;;;;15.45;13.95;;;;;;;13.85;100;95190.08;;;;
2019/07/08 04:32:42;;;;;;;15.45;13.95;;;;;;;13.85;100;95190.08;;;;
2019/07/08 04:33:44;;;;;;;15.45;13.95;;;;;;;13.85;100;95190.08;;;;
2019/07/08 04:34:45;;;;;;;15.45;13.95;;;;;;;13.85;100;95190.08;;;;
2019/07/08 04:35:46;;;;;;;15.45;13.95;;;;;;;13.85;100;95190.08;;;;
2019/07/08 04:36:47;;;;;;;14.75;13.25;;;;;;;13.83;100;95190.87;;;;
2019/07/08 04:37:48;;;;;;;14.75;13.25;;;;;;;13.83;100;95190.87;;;;
2019/07/08 04:38:49;;;;;;;14.75;13.25;;;;;;;13.83;100;95190.87;;;;
2019/07/08 04:39:50;;;;;;;14.75;13.25;;;;;;;13.83;100;95190.87;;;;
2019/07/08 04:40:52;;;;;;;14.75;13.25;;;;;;;13.83;100;95190.87;;;;
2019/07/08 04:41:53;;;;;;;14.75;13.25;;;;;;;13.83;100;95190.87;;;;
2019/07/08 04:42:54;;;;;;;14.75;13.25;;;;;;;13.83;100;95190.87;;;;
2019/07/08 04:43:55;;;;;;;14.75;13.25;;;;;;;13.83;100;95190.87;;;;
2019/07/08 04:44:56;;;;;;;14.75;13.25;;;;;;;13.83;100;95190.87;;;;
2019/07/08 04:45:57;;;;;;;14.75;13.25;;;;;;;13.83;100;95190.87;;;;
2019/07/08 04:46:58;;;;;;;13.1;11.7;;;;;;;13.99;100;95203.91;;;;
2019/07/08 04:47:59;;;;;;;13.1;11.7;;;;;;;13.99;100;95203.91;;;;
2019/07/08 04:49:00;;;;;;;13.1;11.7;;;;;;;13.99;100;95203.91;;;;
2019/07/08 04:50:01;;;;;;;13.1;11.7;;;;;;;13.99;100;95203.91;;;;
2019/07/08 04:51:03;;;;;;;13.1;11.7;;;;;;;13.99;100;95203.91;;;;
2019/07/08 04:52:04;;;;;;;13.1;11.7;;;;;;;13.99;100;95203.91;;;;
2019/07/08 04:53:05;;;;;;;13.1;11.7;;;;;;;13.99;100;95203.91;;;;
2019/07/08 04:54:06;;;;;;;13.1;11.7;;;;;;;13.99;100;95203.91;;;;
2019/07/08 04:55:08;;;;;;;13.1;11.7;;;;;;;13.99;100;95203.91;;;;
2019/07/08 04:56:09;;;;;;;13.1;11.7;;;;;;;13.99;100;95203.91;;;;
2019/07/08 04:57:10;;;;;;;13.6;12.2;;;;;;;14.12;100;95203.48;;;;
2019/07/08 04:58:12;;;;;;;13.6;12.2;;;;;;;14.12;100;95203.48;;;;
2019/07/08 04:59:13;;;;;;;13.6;12.2;;;;;;;14.12;100;95203.48;;;;
2019/07/08 05:00:14;;;;;;;13.6;12.2;;;;;;;14.12;100;95203.48;;;;
2019/07/08 05:01:16;;;;;;;13.6;12.2;;;;;;;14.12;100;95203.48;;;;
2019/07/08 05:02:17;;;;;;;13.6;12.2;;;;;;;14.12;100;95203.48;;;;
2019/07/08 05:03:18;;;;;;;13.6;12.2;;;;;;;14.12;100;95203.48;;;;
2019/07/08 05:04:20;;;;;;;13.6;12.2;;;;;;;14.12;100;95203.48;;;;
2019/07/08 05:05:21;;;;;;;13.6;12.2;;;;;;;14.12;100;95203.48;;;;
2019/07/08 05:06:22;;;;;;;13.6;12.2;;;;;;;14.12;100;95203.48;;;;
2019/07/08 05:07:23;;;;;;;13.6;12.2;;;;;;;14.12;100;95203.48;;;;
2019/07/08 05:08:24;;;;;;;9.550001;8.749999;;;;;;;14.29;100;95222.77;;;;
2019/07/08 05:09:25;;;;;;;9.550001;8.749999;;;;;;;14.29;100;95222.77;;;;
2019/07/08 05:10:26;;;;;;;9.550001;8.749999;;;;;;;14.29;100;95222.77;;;;
2019/07/08 05:11:27;;;;;;;9.550001;8.749999;;;;;;;14.29;100;95222.77;;;;
2019/07/08 05:12:28;;;;;;;9.550001;8.749999;;;;;;;14.29;100;95222.77;;;;
2019/07/08 05:13:30;;;;;;;9.550001;8.749999;;;;;;;14.29;100;95222.77;;;;
2019/07/08 05:14:31;;;;;;;9.550001;8.749999;;;;;;;14.29;100;95222.77;;;;
2019/07/08 05:15:32;;;;;;;9.550001;8.749999;;;;;;;14.29;100;95222.77;;;;
2019/07/08 05:16:33;;;;;;;9.550001;8.749999;;;;;;;14.29;100;95222.77;;;;
2019/07/08 05:17:34;;;;;;;9.550001;8.749999;;;;;;;14.29;100;95222.77;;;;
2019/07/08 05:18:35;;;;;;;10.25;9.25;;;;;;;14.17;100;95217.5;;;;
2019/07/08 05:19:36;;;;;;;10.25;9.25;;;;;;;14.17;100;95217.5;;;;
2019/07/08 05:20:37;;;;;;;10.25;9.25;;;;;;;14.17;100;95217.5;;;;
2019/07/08 05:21:38;;;;;;;10.25;9.25;;;;;;;14.17;100;95217.5;;;;
2019/07/08 05:22:39;;;;;;;10.25;9.25;;;;;;;14.17;100;95217.5;;;;
2019/07/08 05:23:40;;;;;;;10.25;9.25;;;;;;;14.17;100;95217.5;;;;
2019/07/08 05:24:42;;;;;;;10.25;9.25;;;;;;;14.17;100;95217.5;;;;
2019/07/08 05:25:43;;;;;;;10.25;9.25;;;;;;;14.17;100;95217.5;;;;
2019/07/08 05:26:44;;;;;;;10.25;9.25;;;;;;;14.17;100;95217.5;;;;
2019/07/08 05:27:45;;;;;;;10.25;9.25;;;;;;;14.17;100;95217.5;;;;
2019/07/08 05:28:46;;;;;;;10.25;9.25;;;;;;;14.17;100;95217.5;;;;
2019/07/08 05:29:47;;;;;;;10.45;9.400001;;;;;;;14.13;100;95230.36;;;;
2019/07/08 05:30:48;;;;;;;10.45;9.400001;;;;;;;14.13;100;95230.36;;;;
2019/07/08 05:31:49;;;;;;;10.45;9.400001;;;;;;;14.13;100;95230.36;;;;
2019/07/08 05:32:50;;;;;;;10.45;9.400001;;;;;;;14.13;100;95230.36;;;;
2019/07/08 05:33:51;;;;;;;10.45;9.400001;;;;;;;14.13;100;95230.36;;;;
2019/07/08 05:34:53;;;;;;;10.45;9.400001;;;;;;;14.13;100;95230.36;;;;
2019/07/08 05:35:54;;;;;;;10.45;9.400001;;;;;;;14.13;100;95230.36;;;;
2019/07/08 05:36:55;;;;;;;10.45;9.400001;;;;;;;14.13;100;95230.36;;;;
2019/07/08 05:37:56;;;;;;;10.45;9.400001;;;;;;;14.13;100;95230.36;;;;
2019/07/08 05:38:57;;;;;;;10.45;9.400001;;;;;;;14.13;100;95230.36;;;;
2019/07/08 05:39:58;;;;;;;9.749999;8.849999;;;;;;;14.12;100;95251.93;;;;
2019/07/08 05:40:59;;;;;;;9.749999;8.849999;;;;;;;14.12;100;95251.93;;;;
2019/07/08 05:42:00;;;;;;;9.749999;8.849999;;;;;;;14.12;100;95251.93;;;;
2019/07/08 05:43:01;;;;;;;9.749999;8.849999;;;;;;;14.12;100;95251.93;;;;
2019/07/08 05:44:02;;;;;;;9.749999;8.849999;;;;;;;14.12;100;95251.93;;;;
2019/07/08 05:45:04;;;;;;;9.749999;8.849999;;;;;;;14.12;100;95251.93;;;;
2019/07/08 05:46:05;;;;;;;9.749999;8.849999;;;;;;;14.12;100;95251.93;;;;
2019/07/08 05:47:06;;;;;;;9.749999;8.849999;;;;;;;14.12;100;95251.93;;;;
2019/07/08 05:48:07;;;;;;;9.749999;8.849999;;;;;;;14.12;100;95251.93;;;;
2019/07/08 05:49:08;;;;;;;9.749999;8.849999;;;;;;;14.12;100;95251.93;;;;
2019/07/08 05:50:09;;;;;;;14.2;11.55;;;;;;;14.12;100;95265.52;;;;
2019/07/08 05:51:12;;;;;;;14.2;11.55;;;;;;;14.12;100;95265.52;;;;
2019/07/08 05:52:13;;;;;;;14.2;11.55;;;;;;;14.12;100;95265.52;;;;
2019/07/08 05:53:14;;;;;;;14.2;11.55;;;;;;;14.12;100;95265.52;;;;
2019/07/08 05:54:15;;;;;;;14.2;11.55;;;;;;;14.12;100;95265.52;;;;
2019/07/08 05:55:16;;;;;;;14.2;11.55;;;;;;;14.12;100;95265.52;;;;
2019/07/08 05:56:17;;;;;;;14.2;11.55;;;;;;;14.12;100;95265.52;;;;
2019/07/08 05:57:19;;;;;;;14.2;11.55;;;;;;;14.12;100;95265.52;;;;
2019/07/08 05:58:20;;;;;;;14.2;11.55;;;;;;;14.12;100;95265.52;;;;
2019/07/08 05:59:21;;;;;;;14.2;11.55;;;;;;;14.12;100;95265.52;;;;
2019/07/08 06:00:22;;;;;;;14.2;11.55;;;;;;;14.12;100;95265.52;;;;
2019/07/08 06:01:23;;;;;;;11.4;9.499999;;;;;;;14.17;100;95263.67;;;;
2019/07/08 06:02:25;;;;;;;11.4;9.499999;;;;;;;14.17;100;95263.67;;;;
2019/07/08 06:03:26;;;;;;;11.4;9.499999;;;;;;;14.17;100;95263.67;;;;
2019/07/08 06:04:27;;;;;;;11.4;9.499999;;;;;;;14.17;100;95263.67;;;;